createdAt,value
2018-06-25T00:02:01.343Z,4.30
2018-06-25T00:04:31.526Z,4.70
2018-06-25T00:07:01.559Z,4.53
2018-06-25T00:09:31.935Z,4.80
2018-06-25T00:12:02.477Z,4.87
2018-06-25T00:14:34.069Z,4.30
2018-06-25T00:17:05.119Z,4.40
2018-06-25T00:19:35.035Z,4.80
2018-06-25T00:22:05.017Z,4.60
2018-06-25T00:24:35.731Z,4.83
2018-06-25T00:27:06.434Z,5.10
2018-06-25T00:29:36.245Z,4.87
2018-06-25T00:32:07.835Z,5.73
2018-06-25T00:34:39.077Z,5.30
2018-06-25T00:37:08.945Z,6.37
2018-06-25T00:39:39.180Z,5.60
2018-06-25T00:42:09.033Z,6.30
2018-06-25T00:44:38.680Z,7.07
2018-06-25T00:47:08.585Z,7.67
2018-06-25T00:49:39.003Z,6.70
2018-06-25T00:52:09.049Z,7.07
2018-06-25T00:54:38.746Z,6.80
2018-06-25T00:57:08.639Z,7.50
2018-06-25T00:59:43.922Z,6.50
2018-06-25T01:02:14.563Z,7.30
2018-06-25T01:04:46.659Z,6.27
2018-06-25T01:07:17.718Z,5.90
2018-06-25T01:09:47.536Z,6.70
2018-06-25T01:12:17.935Z,6.40
2018-06-25T01:14:47.764Z,6.27
2018-06-25T01:17:17.597Z,4.90
2018-06-25T01:19:47.665Z,5.20
2018-06-25T01:22:18.201Z,4.00
2018-06-25T01:24:48.300Z,4.07
2018-06-25T01:27:19.373Z,4.03
2018-06-25T01:29:49.314Z,4.47
2018-06-25T01:32:19.991Z,3.63
2018-06-25T01:34:49.887Z,3.10
2018-06-25T01:37:20.194Z,2.80
2018-06-25T01:39:50.361Z,2.63
2018-06-25T01:42:20.774Z,2.37
2018-06-25T01:44:50.855Z,2.00
2018-06-25T01:47:21.889Z,2.53
2018-06-25T01:49:52.489Z,2.00
2018-06-25T01:52:24.144Z,2.00
2018-06-25T01:54:53.783Z,2.00
2018-06-25T01:57:23.987Z,2.00
2018-06-25T01:59:53.887Z,1.80
2018-06-25T02:02:24.025Z,1.63
2018-06-25T02:04:54.223Z,2.27
2018-06-25T02:07:24.638Z,1.80
2018-06-25T02:09:56.237Z,1.80
2018-06-25T02:12:27.491Z,2.27
2018-06-25T02:14:57.388Z,1.83
2018-06-25T02:17:27.490Z,1.90
2018-06-25T02:19:57.379Z,2.57
2018-06-25T02:22:27.634Z,2.50
2018-06-25T02:24:57.434Z,2.20
2018-06-25T02:27:27.112Z,2.80
2018-06-25T02:29:57.364Z,2.13
2018-06-25T02:32:27.826Z,2.43
2018-06-25T02:34:58.258Z,2.40
2018-06-25T02:37:28.211Z,2.50
2018-06-25T02:39:58.094Z,2.73
2018-06-25T02:42:28.082Z,2.87
2018-06-25T02:44:59.957Z,2.40
2018-06-25T02:47:30.840Z,2.83
2018-06-25T02:50:00.695Z,2.77
2018-06-25T02:52:30.726Z,2.27
2018-06-25T02:55:01.899Z,3.03
2018-06-25T02:57:32.187Z,2.60
2018-06-25T03:00:02.137Z,2.97
2018-06-25T03:02:32.854Z,3.23
2018-06-25T03:05:03.748Z,2.80
2018-06-25T03:07:34.751Z,3.20
2018-06-25T03:10:05.289Z,3.50
2018-06-25T03:12:35.035Z,3.40
2018-06-25T03:15:04.852Z,3.30
2018-06-25T03:17:35.104Z,3.03
2018-06-25T03:20:05.399Z,3.47
2018-06-25T03:22:36.141Z,3.40
2018-06-25T03:25:06.315Z,3.50
2018-06-25T03:27:35.727Z,3.23
2018-06-25T03:30:05.736Z,3.17
2018-06-25T03:32:35.864Z,3.43
2018-06-25T03:35:05.575Z,2.80
2018-06-25T03:37:35.641Z,2.97
2018-06-25T03:40:05.731Z,3.43
2018-06-25T03:42:35.856Z,3.50
2018-06-25T03:45:06.000Z,3.57
2018-06-25T03:47:35.882Z,3.10
2018-06-25T03:50:05.779Z,3.33
2018-06-25T03:52:35.764Z,3.67
2018-06-25T03:55:05.532Z,3.20
2018-06-25T03:57:35.770Z,3.20
2018-06-25T04:00:05.937Z,3.13
2018-06-25T04:02:35.580Z,3.47
2018-06-25T04:05:06.010Z,3.73
2018-06-25T04:07:35.511Z,3.30
2018-06-25T04:10:05.816Z,3.17
2018-06-25T04:12:36.080Z,3.50
2018-06-25T04:15:06.479Z,3.70
2018-06-25T04:17:36.347Z,3.93
2018-06-25T04:20:06.372Z,3.70
2018-06-25T04:22:37.220Z,4.03
2018-06-25T04:25:07.286Z,4.47
2018-06-25T04:27:37.637Z,3.73
2018-06-25T04:30:07.818Z,3.80
2018-06-25T04:32:37.308Z,3.40
2018-06-25T04:35:07.138Z,3.27
2018-06-25T04:37:37.429Z,3.37
2018-06-25T04:40:08.455Z,3.80
2018-06-25T04:42:38.094Z,3.20
2018-06-25T04:45:08.439Z,2.70
2018-06-25T04:47:41.924Z,2.83
2018-06-25T04:50:11.395Z,2.37
2018-06-25T04:52:41.603Z,2.63
2018-06-25T04:55:11.644Z,2.47
2018-06-25T04:57:41.649Z,2.20
2018-06-25T05:00:11.612Z,2.10
2018-06-25T05:02:41.489Z,2.43
2018-06-25T05:05:10.895Z,2.53
2018-06-25T05:07:40.639Z,2.40
2018-06-25T05:10:11.451Z,2.70
2018-06-25T05:12:41.753Z,2.77
2018-06-25T05:15:11.580Z,2.60
2018-06-25T05:17:41.142Z,2.27
2018-06-25T05:20:10.903Z,2.70
2018-06-25T05:22:40.670Z,2.40
2018-06-25T05:25:12.437Z,2.30
2018-06-25T05:27:42.738Z,2.80
2018-06-25T05:30:12.669Z,2.90
2018-06-25T05:32:42.288Z,2.70
2018-06-25T05:35:12.270Z,2.63
2018-06-25T05:37:42.403Z,2.40
2018-06-25T05:40:12.273Z,2.87
2018-06-25T05:42:42.640Z,2.60
2018-06-25T05:45:12.329Z,3.03
2018-06-25T05:47:41.849Z,3.47
2018-06-25T05:50:11.634Z,3.37
2018-06-25T05:52:41.178Z,3.70
2018-06-25T05:55:10.953Z,3.03
2018-06-25T05:57:40.685Z,3.07
2018-06-25T06:00:10.223Z,3.37
2018-06-25T06:02:40.317Z,3.43
2018-06-25T06:05:10.630Z,3.50
2018-06-25T06:07:40.445Z,2.93
2018-06-25T06:10:09.993Z,2.80
2018-06-25T06:12:41.305Z,3.20
2018-06-25T06:15:11.317Z,3.37
2018-06-25T06:17:40.864Z,3.17
2018-06-25T06:20:11.895Z,2.83
2018-06-25T06:22:41.763Z,3.40
2018-06-25T06:25:11.951Z,3.13
2018-06-25T06:27:41.804Z,3.03
2018-06-25T06:30:12.867Z,3.30
2018-06-25T06:32:42.299Z,2.70
2018-06-25T06:35:12.149Z,3.10
2018-06-25T06:37:42.502Z,2.60
2018-06-25T06:40:12.181Z,3.10
2018-06-25T06:42:42.187Z,3.30
2018-06-25T06:45:11.949Z,3.00
2018-06-25T06:47:41.421Z,3.10
2018-06-25T06:50:11.119Z,3.20
2018-06-25T06:52:40.519Z,3.13
2018-06-25T06:55:11.078Z,3.07
2018-06-25T06:57:41.497Z,3.20
2018-06-25T07:00:11.411Z,2.87
2018-06-25T07:02:41.371Z,2.97
2018-06-25T07:05:11.059Z,3.37
2018-06-25T07:07:40.998Z,3.17
2018-06-25T07:10:12.370Z,3.87
2018-06-25T07:12:42.125Z,3.40
2018-06-25T07:15:11.546Z,3.17
2018-06-25T07:17:42.078Z,3.27
2018-06-25T07:20:12.183Z,3.70
2018-06-25T07:22:41.968Z,4.13
2018-06-25T07:25:12.500Z,3.57
2018-06-25T07:27:42.231Z,3.60
2018-06-25T07:30:12.471Z,3.60
2018-06-25T07:32:42.595Z,3.57
2018-06-25T07:35:12.177Z,4.00
2018-06-25T07:37:41.618Z,3.50
2018-06-25T07:40:12.160Z,2.93
2018-06-25T07:42:42.249Z,2.90
2018-06-25T07:45:11.664Z,3.30
2018-06-25T07:47:41.976Z,3.20
2018-06-25T07:50:11.807Z,2.67
2018-06-25T07:52:41.584Z,3.03
2018-06-25T07:55:11.279Z,2.67
2018-06-25T07:57:40.991Z,2.53
2018-06-25T08:00:11.547Z,2.80
2018-06-25T08:02:41.356Z,2.90
2018-06-25T08:05:11.121Z,2.83
2018-06-25T08:07:41.342Z,3.20
2018-06-25T08:10:12.613Z,3.00
2018-06-25T08:12:42.158Z,2.07
2018-06-25T08:15:12.587Z,3.13
2018-06-25T08:17:42.731Z,3.37
2018-06-25T08:20:13.059Z,3.37
2018-06-25T08:22:43.081Z,2.87
2018-06-25T08:25:12.879Z,3.03
2018-06-25T08:27:42.778Z,2.60
2018-06-25T08:30:15.402Z,2.70
2018-06-25T08:32:45.827Z,3.00
2018-06-25T08:35:17.044Z,2.80
2018-06-25T08:37:47.021Z,2.50
2018-06-25T08:40:17.681Z,2.70
2018-06-25T08:42:48.304Z,2.50
2018-06-25T08:45:18.648Z,2.83
2018-06-25T08:47:48.887Z,2.70
2018-06-25T08:50:20.052Z,2.70
2018-06-25T08:52:49.533Z,2.50
2018-06-25T08:55:20.544Z,2.40
2018-06-25T08:57:50.393Z,2.53
2018-06-25T09:00:20.207Z,3.27
2018-06-25T09:02:50.817Z,3.20
2018-06-25T09:05:20.803Z,2.40
2018-06-25T09:07:50.520Z,2.60
2018-06-25T09:10:21.765Z,2.60
2018-06-25T09:12:52.044Z,2.80
2018-06-25T09:15:21.615Z,2.70
2018-06-25T09:17:52.091Z,3.37
2018-06-25T09:20:22.272Z,3.23
2018-06-25T09:22:52.495Z,2.83
2018-06-25T09:25:22.323Z,3.00
2018-06-25T09:27:51.767Z,3.27
2018-06-25T09:30:21.659Z,2.73
2018-06-25T09:32:51.829Z,3.27
2018-06-25T09:35:21.572Z,2.80
2018-06-25T09:37:51.079Z,2.30
2018-06-25T09:40:20.818Z,3.13
2018-06-25T09:42:50.274Z,3.40
2018-06-25T09:45:19.848Z,3.27
2018-06-25T09:47:50.030Z,3.60
2018-06-25T09:50:21.028Z,3.03
2018-06-25T09:52:51.058Z,2.90
2018-06-25T09:55:21.323Z,3.47
2018-06-25T09:57:52.166Z,3.80
2018-06-25T10:00:26.220Z,3.20
2018-06-25T10:02:57.380Z,3.47
2018-06-25T10:05:27.176Z,2.97
2018-06-25T10:07:56.905Z,3.00
2018-06-25T10:10:26.850Z,3.57
2018-06-25T10:12:57.025Z,3.37
2018-06-25T10:15:26.565Z,2.60
2018-06-25T10:17:56.521Z,2.53
2018-06-25T10:20:26.718Z,3.40
2018-06-25T10:22:56.211Z,3.43
2018-06-25T10:25:26.665Z,3.77
2018-06-25T10:27:57.790Z,4.00
2018-06-25T10:30:27.612Z,3.13
2018-06-25T10:32:57.744Z,2.63
2018-06-25T10:35:27.115Z,3.27
2018-06-25T10:37:57.469Z,3.40
2018-06-25T10:40:29.001Z,3.70
2018-06-25T10:42:59.025Z,3.40
2018-06-25T10:45:28.729Z,2.93
2018-06-25T10:47:58.972Z,3.50
2018-06-25T10:50:28.631Z,3.27
2018-06-25T10:52:58.105Z,3.67
2018-06-25T10:55:28.788Z,3.50
2018-06-25T10:57:59.206Z,3.00
2018-06-25T11:00:29.085Z,3.40
2018-06-25T11:02:58.818Z,3.57
2018-06-25T11:05:29.312Z,3.10
2018-06-25T11:07:59.029Z,3.20
2018-06-25T11:10:29.175Z,2.77
2018-06-25T11:12:59.853Z,3.40
2018-06-25T11:15:29.596Z,2.70
2018-06-25T11:17:59.382Z,3.00
2018-06-25T11:20:29.300Z,3.17
2018-06-25T11:22:59.522Z,3.57
2018-06-25T11:25:29.600Z,3.00
2018-06-25T11:27:59.317Z,2.77
2018-06-25T11:30:28.778Z,3.30
2018-06-25T11:32:58.985Z,3.03
2018-06-25T11:35:29.451Z,3.47
2018-06-25T11:37:58.952Z,2.83
2018-06-25T11:40:29.777Z,3.20
2018-06-25T11:43:00.415Z,2.90
2018-06-25T11:45:31.447Z,2.70
2018-06-25T11:48:01.536Z,3.23
2018-06-25T11:50:32.535Z,3.27
2018-06-25T11:53:02.798Z,2.93
2018-06-25T11:55:33.710Z,3.13
2018-06-25T11:58:03.663Z,3.00
2018-06-25T12:00:34.024Z,3.07
2018-06-25T12:03:05.335Z,3.10
2018-06-25T12:05:34.735Z,3.73
2018-06-25T12:08:04.186Z,3.20
2018-06-25T12:10:33.926Z,3.40
2018-06-25T12:13:04.731Z,2.93
2018-06-25T12:15:34.123Z,2.97
2018-06-25T12:18:05.375Z,3.13
2018-06-25T12:20:34.841Z,3.70
2018-06-25T12:23:05.807Z,3.60
2018-06-25T12:25:36.150Z,2.87
2018-06-25T12:28:06.857Z,3.20
2018-06-25T12:30:36.324Z,3.53
2018-06-25T12:33:06.014Z,3.60
2018-06-25T12:35:35.547Z,3.93
2018-06-25T12:38:05.161Z,3.63
2018-06-25T12:40:34.982Z,3.90
2018-06-25T12:43:04.783Z,4.13
2018-06-25T12:45:35.048Z,3.37
2018-06-25T12:48:04.747Z,3.80
2018-06-25T12:50:34.160Z,3.80
2018-06-25T12:53:03.710Z,3.80
2018-06-25T12:55:33.381Z,3.77
2018-06-25T12:58:02.816Z,3.50
2018-06-25T13:00:32.800Z,3.47
2018-06-25T13:03:02.799Z,4.53
2018-06-25T13:05:32.168Z,4.30
2018-06-25T13:08:01.810Z,4.07
2018-06-25T13:10:32.193Z,4.70
2018-06-25T13:13:02.982Z,4.90
2018-06-25T13:15:32.989Z,4.07
2018-06-25T13:18:03.588Z,4.50
2018-06-25T13:20:37.351Z,3.63
2018-06-25T13:23:07.787Z,4.10
2018-06-25T13:25:39.190Z,5.07
2018-06-25T13:28:10.457Z,4.50
2018-06-25T13:30:42.062Z,4.57
2018-06-25T13:33:12.997Z,4.90
2018-06-25T13:35:44.200Z,4.23
2018-06-25T13:38:19.299Z,4.03
2018-06-25T13:40:50.523Z,4.40
2018-06-25T13:43:22.759Z,3.73
2018-06-25T13:45:53.672Z,4.10
2018-06-25T13:48:26.592Z,5.40
2018-06-25T13:50:57.955Z,4.30
2018-06-25T13:53:30.075Z,4.30
2018-06-25T13:56:00.860Z,4.23
2018-06-25T13:58:31.932Z,4.67
2018-06-25T14:01:02.398Z,4.37
2018-06-25T14:03:34.121Z,6.70
2018-06-25T14:06:06.977Z,4.10
2018-06-25T14:11:23.027Z,4.03
2018-06-25T14:13:55.146Z,4.43
2018-06-25T14:16:26.290Z,3.87
2018-06-25T14:18:56.704Z,4.30
2018-06-25T14:21:28.082Z,4.73
2018-06-25T14:24:03.597Z,4.27
2018-06-25T14:26:39.621Z,4.83
2018-06-25T14:29:16.192Z,3.93
2018-06-25T14:31:51.659Z,4.10
2018-06-25T14:34:25.931Z,3.97
2018-06-25T14:36:58.172Z,4.63
2018-06-25T14:39:32.139Z,4.20
2018-06-25T14:42:02.855Z,3.10
2018-06-25T14:44:34.965Z,4.17
2018-06-25T14:47:06.759Z,4.10
2018-06-25T14:49:39.404Z,3.77
2018-06-25T14:52:10.638Z,4.73
2018-06-25T14:54:41.895Z,3.67
2018-06-25T14:57:16.116Z,3.70
2018-06-25T14:59:48.172Z,3.13
2018-06-25T15:02:23.520Z,3.53
2018-06-25T15:04:54.711Z,4.53
2018-06-25T15:07:26.368Z,4.00
2018-06-25T15:09:57.268Z,4.00
2018-06-25T15:12:28.287Z,4.20
2018-06-25T15:14:58.811Z,3.77
2018-06-25T15:17:30.440Z,3.53
2018-06-25T15:20:02.281Z,4.10
2018-06-25T15:22:33.323Z,3.07
2018-06-25T15:25:05.183Z,3.50
2018-06-25T15:27:39.874Z,3.23
2018-06-25T15:30:11.770Z,3.10
2018-06-25T15:32:43.181Z,3.17
2018-06-25T15:35:14.709Z,3.20
2018-06-25T15:37:46.964Z,3.53
2018-06-25T15:40:21.745Z,3.10
2018-06-25T15:42:52.688Z,3.13
2018-06-25T15:45:23.770Z,2.67
2018-06-25T15:47:55.229Z,2.80
2018-06-25T15:50:28.878Z,3.00
2018-06-25T15:53:00.402Z,2.63
2018-06-25T15:55:32.269Z,2.80
2018-06-25T15:58:03.068Z,2.80
2018-06-25T16:00:36.447Z,3.00
2018-06-25T16:03:09.620Z,2.20
2018-06-25T16:05:42.006Z,3.00
2018-06-25T16:08:13.898Z,2.83
2018-06-25T16:10:45.279Z,2.83
2018-06-25T16:13:21.817Z,2.60
2018-06-25T16:15:52.090Z,3.03
2018-06-25T16:18:23.461Z,2.60
2018-06-25T16:20:55.088Z,2.90
2018-06-25T16:23:26.079Z,3.20
2018-06-25T16:25:58.990Z,3.03
2018-06-25T16:28:28.707Z,3.13
2018-06-25T16:30:58.431Z,2.57
2018-06-25T16:33:28.356Z,2.80
2018-06-25T16:35:59.345Z,3.30
2018-06-25T16:38:29.384Z,3.10
2018-06-25T16:41:00.061Z,2.77
2018-06-25T16:43:32.427Z,3.10
2018-06-25T16:46:04.402Z,3.10
2018-06-25T16:48:34.626Z,2.63
2018-06-25T16:51:04.189Z,2.80
2018-06-25T16:53:34.166Z,2.63
2018-06-25T16:56:03.864Z,2.43
2018-06-25T16:58:33.399Z,2.67
2018-06-25T17:01:03.619Z,2.70
2018-06-25T17:03:35.004Z,2.50
2018-06-25T17:06:05.293Z,2.30
2018-06-25T17:08:38.045Z,2.10
2018-06-25T17:11:10.749Z,2.30
2018-06-25T17:13:40.687Z,2.53
2018-06-25T17:16:10.891Z,2.23
2018-06-25T17:18:40.933Z,3.93
2018-06-25T17:21:19.626Z,2.33
2018-06-25T17:23:49.300Z,2.60
2018-06-25T17:26:19.161Z,2.10
2018-06-25T17:28:49.797Z,2.30
2018-06-25T17:31:20.517Z,2.70
2018-06-25T17:33:53.640Z,2.53
2018-06-25T17:36:23.755Z,2.33
2018-06-25T17:38:53.365Z,2.50
2018-06-25T17:41:23.998Z,1.87
2018-06-25T17:43:54.148Z,2.33
2018-06-25T17:46:24.634Z,2.23
2018-06-25T17:48:55.218Z,2.37
2018-06-25T17:51:25.248Z,2.70
2018-06-25T17:53:54.950Z,2.87
2018-06-25T17:56:25.237Z,2.43
2018-06-25T17:58:57.474Z,2.43
2018-06-25T18:01:29.360Z,2.50
2018-06-25T18:04:01.711Z,2.53
2018-06-25T18:06:33.914Z,3.37
2018-06-25T18:09:05.853Z,3.83
2018-06-25T18:11:39.013Z,3.27
2018-06-25T18:14:11.435Z,3.07
2018-06-25T18:16:44.037Z,3.10
2018-06-25T18:19:21.068Z,2.70
2018-06-25T18:21:53.296Z,2.87
2018-06-25T18:24:25.419Z,3.20
2018-06-25T18:26:56.611Z,3.07
2018-06-25T18:29:29.427Z,2.83
2018-06-25T18:32:03.293Z,3.07
2018-06-25T18:34:40.973Z,3.23
2018-06-25T18:37:13.987Z,3.43
2018-06-25T18:39:45.142Z,3.60
2018-06-25T18:42:17.857Z,3.27
2018-06-25T18:44:47.801Z,3.20
2018-06-25T18:47:21.860Z,3.37
2018-06-25T18:49:55.213Z,3.43
2018-06-25T18:52:26.151Z,3.27
2018-06-25T18:54:57.743Z,3.30
2018-06-25T18:57:28.533Z,3.40
2018-06-25T18:59:59.538Z,3.20
2018-06-25T19:02:29.982Z,3.83
2018-06-25T19:05:00.297Z,3.50
2018-06-25T19:07:31.073Z,3.80
2018-06-25T19:10:03.500Z,3.50
2018-06-25T19:12:35.796Z,3.10
2018-06-25T19:15:07.533Z,3.87
2018-06-25T19:17:38.792Z,3.37
2018-06-25T19:20:11.225Z,3.47
2018-06-25T19:22:43.361Z,2.70
2018-06-25T19:25:21.384Z,3.57
2018-06-25T19:27:53.584Z,3.47
2018-06-25T19:30:25.798Z,3.53
2018-06-25T19:32:56.707Z,3.60
2018-06-25T19:35:28.263Z,4.13
2018-06-25T19:38:00.084Z,3.70
2018-06-25T19:40:31.107Z,3.80
2018-06-25T19:43:03.736Z,3.87
2018-06-25T19:45:35.698Z,3.73
2018-06-25T19:48:07.286Z,3.07
2018-06-25T19:50:41.462Z,3.80
2018-06-25T19:53:12.624Z,3.20
2018-06-25T19:55:45.281Z,3.77
2018-06-25T19:58:16.422Z,3.33
2018-06-25T20:00:47.377Z,3.50
2018-06-25T20:03:20.715Z,3.43
2018-06-25T20:05:51.333Z,3.87
2018-06-25T20:08:22.532Z,3.37
2018-06-25T20:10:54.063Z,3.13
2018-06-25T20:13:25.323Z,3.80
2018-06-25T20:15:56.038Z,4.07
2018-06-25T20:18:28.945Z,3.53
2018-06-25T20:21:00.734Z,3.30
2018-06-25T20:23:31.705Z,3.60
2018-06-25T20:26:03.409Z,3.80
2018-06-25T20:28:33.422Z,3.70
2018-06-25T20:31:04.313Z,3.80
2018-06-25T20:33:34.967Z,4.00
2018-06-25T20:36:07.862Z,3.50
2018-06-25T20:38:39.125Z,3.83
2018-06-25T20:41:09.502Z,3.87
2018-06-25T20:43:40.326Z,4.50
2018-06-25T20:46:11.547Z,2.93
2018-06-25T20:48:41.746Z,4.30
2018-06-25T20:51:11.710Z,4.27
2018-06-25T20:53:42.805Z,4.10
2018-06-25T20:56:12.970Z,4.50
2018-06-25T20:58:43.999Z,4.27
2018-06-25T21:01:14.863Z,3.80
2018-06-25T21:03:45.564Z,3.40
2018-06-25T21:06:15.948Z,3.90
2018-06-25T21:08:45.400Z,4.10
2018-06-25T21:11:14.893Z,3.90
2018-06-25T21:13:44.604Z,3.17
2018-06-25T21:16:14.779Z,3.53
2018-06-25T21:18:45.296Z,3.50
2018-06-25T21:21:16.464Z,4.27
2018-06-25T21:23:46.828Z,4.07
2018-06-25T21:26:16.844Z,3.93
2018-06-25T21:28:49.227Z,4.10
2018-06-25T21:31:19.672Z,3.73
2018-06-25T21:33:51.307Z,4.07
2018-06-25T21:36:21.829Z,3.80
2018-06-25T21:38:51.601Z,4.00
2018-06-25T21:41:23.193Z,3.30
2018-06-25T21:43:54.627Z,3.77
2018-06-25T21:46:24.545Z,3.60
2018-06-25T21:48:54.872Z,3.70
2018-06-25T21:51:25.993Z,2.93
2018-06-25T21:53:56.232Z,4.00
2018-06-25T21:56:27.375Z,4.23
2018-06-25T21:58:57.804Z,3.43
2018-06-25T22:01:28.744Z,3.43
2018-06-25T22:04:00.066Z,3.33
2018-06-25T22:06:29.991Z,3.53
2018-06-25T22:09:00.743Z,3.87
2018-06-25T22:11:33.471Z,3.57
2018-06-25T22:14:04.238Z,4.00
2018-06-25T22:16:35.395Z,4.10
2018-06-25T22:19:06.558Z,4.60
2018-06-25T22:21:36.901Z,3.40
2018-06-25T22:24:08.224Z,3.20
2018-06-25T22:26:40.397Z,4.00
2018-06-25T22:29:10.487Z,4.40
2018-06-25T22:31:40.128Z,3.97
2018-06-25T22:34:10.603Z,4.43
2018-06-25T22:36:39.963Z,4.57
2018-06-25T22:39:12.023Z,4.00
2018-06-25T22:41:43.454Z,4.10
2018-06-25T22:44:14.681Z,4.20
2018-06-25T22:46:44.896Z,4.70
2018-06-25T22:49:15.259Z,3.73
2018-06-25T22:51:45.088Z,3.97
2018-06-25T22:54:15.987Z,4.60
2018-06-25T22:56:45.916Z,4.10
2018-06-25T22:59:15.716Z,3.73
2018-06-25T23:01:45.492Z,4.20
2018-06-25T23:04:15.201Z,4.53
2018-06-25T23:06:44.870Z,4.53
2018-06-25T23:09:14.378Z,4.83
2018-06-25T23:11:44.735Z,3.83
2018-06-25T23:14:14.617Z,4.13
2018-06-25T23:16:44.590Z,4.10
2018-06-25T23:19:14.423Z,4.37
2018-06-25T23:21:43.778Z,4.10
2018-06-25T23:24:13.285Z,4.33
2018-06-25T23:26:43.066Z,3.93
2018-06-25T23:29:13.783Z,4.20
2018-06-25T23:31:43.638Z,4.03
2018-06-25T23:34:13.675Z,3.77
2018-06-25T23:36:43.788Z,4.30
2018-06-25T23:39:14.167Z,3.43
2018-06-25T23:41:44.352Z,3.97
2018-06-25T23:44:15.049Z,3.93
2018-06-25T23:46:44.889Z,3.97
2018-06-25T23:49:15.199Z,3.90
2018-06-25T23:51:45.513Z,4.87
2018-06-25T23:54:15.472Z,4.30
2018-06-25T23:56:46.561Z,4.47
2018-06-25T23:59:16.274Z,4.47
